Main page
METAR-TAF:

METAR-TAF

Airports :

Olsztyn-Mazury Airport

Olsztyn, Poland

latitude: 53-28-55N, longitude: 20-56-16E, elevation: 141 m

Current weather observation

The report was made 7 hours and 24 minutes ago, at 20:00 UTC
Calm wind
Temperature 17°C
Humidity 88%
Pressure 1018 hPa
Visibility 10 km or more
no clouds below 1500 m and no cumulonimbus

METAR: EPSY 192000Z 00000KT CAVOK 17/15 Q1018

Time: 05:24 (03:24 UTC)

Forecast

The report was made 9 hours and 54 minutes ago, at 17:30 UTC
Forecast valid from 19 at 18 UTC to 20 at 03 UTC
Wind 2 kt from variable directions
Visibility 10 km or more
no clouds below 1500 m and no cumulonimbus

TAF: EPSY 191730Z 1918/2003 VRB02KT CAVOK

Weather observations and forecasts of more than 4000 airports (METAR and TAF reports).

The available stations are represented by yellow and red dots on the map.

Hover mouse over dot to see the name of the station.

Then click to see weather observations and forecasts.

To change the map : click on the green buttons with a black cross to zoom in, on the green button with a dash to zoom out, or on the green arrows for adjacent maps.


METAR-TAF: